sensor_id;sensor_type;location;lat;lon;timestamp;pressure;altitude;pressure_sealevel;temperature;humidity
16595;BME280;8410;52.532;13.336;2023-05-24T00:01:31;101359.59;;;12.72;73.16
16595;BME280;8410;52.532;13.336;2023-05-24T00:03:59;101370.16;;;12.91;70.55
16595;BME280;8410;52.532;13.336;2023-05-24T00:06:27;101368.69;;;12.46;72.36
16595;BME280;8410;52.532;13.336;2023-05-24T00:08:55;101366.41;;;12.69;71.43
16595;BME280;8410;52.532;13.336;2023-05-24T00:11:24;101372.78;;;12.92;71.87
16595;BME280;8410;52.532;13.336;2023-05-24T00:13:53;101382.97;;;13.50;69.85
16595;BME280;8410;52.532;13.336;2023-05-24T00:16:20;101383.56;;;13.26;70.42
16595;BME280;8410;52.532;13.336;2023-05-24T00:18:48;101380.72;;;13.09;69.53
16595;BME280;8410;52.532;13.336;2023-05-24T00:21:15;101377.94;;;12.92;69.78
16595;BME280;8410;52.532;13.336;2023-05-24T00:23:43;101377.91;;;12.89;70.18
16595;BME280;8410;52.532;13.336;2023-05-24T00:26:11;101381.69;;;13.16;70.10
16595;BME280;8410;52.532;13.336;2023-05-24T00:28:39;101385.59;;;12.83;69.68
16595;BME280;8410;52.532;13.336;2023-05-24T00:31:07;101388.09;;;12.80;70.39
16595;BME280;8410;52.532;13.336;2023-05-24T00:33:34;101388.72;;;12.62;70.25
16595;BME280;8410;52.532;13.336;2023-05-24T00:36:02;101382.38;;;13.04;70.05
16595;BME280;8410;52.532;13.336;2023-05-24T00:38:29;101381.66;;;13.13;70.68
16595;BME280;8410;52.532;13.336;2023-05-24T00:40:57;101381.25;;;13.52;68.19
16595;BME280;8410;52.532;13.336;2023-05-24T00:43:26;101381.94;;;13.36;70.11
16595;BME280;8410;52.532;13.336;2023-05-24T00:46:11;101386.34;;;12.77;71.17
16595;BME280;8410;52.532;13.336;2023-05-24T00:48:40;101387.78;;;13.22;69.56
16595;BME280;8410;52.532;13.336;2023-05-24T00:51:08;101373.94;;;13.17;69.38
16595;BME280;8410;52.532;13.336;2023-05-24T00:53:35;101386.78;;;13.10;68.89
16595;BME280;8410;52.532;13.336;2023-05-24T00:56:04;101386.59;;;13.67;68.89
16595;BME280;8410;52.532;13.336;2023-05-24T00:58:32;101383.22;;;13.01;70.74
16595;BME280;8410;52.532;13.336;2023-05-24T01:01:02;101379.38;;;13.37;69.97
16595;BME280;8410;52.532;13.336;2023-05-24T01:03:30;101378.13;;;13.08;69.98
16595;BME280;8410;52.532;13.336;2023-05-24T01:06:00;101378.53;;;13.37;69.49
16595;BME280;8410;52.532;13.336;2023-05-24T01:08:42;101376.44;;;13.89;67.85
16595;BME280;8410;52.532;13.336;2023-05-24T01:11:20;101373.00;;;13.11;70.36
16595;BME280;8410;52.532;13.336;2023-05-24T01:13:58;101380.13;;;13.27;69.49
16595;BME280;8410;52.532;13.336;2023-05-24T01:16:40;101376.78;;;13.37;69.77
16595;BME280;8410;52.532;13.336;2023-05-24T01:19:39;101379.94;;;13.15;70.29
16595;BME280;8410;52.532;13.336;2023-05-24T01:22:17;101384.94;;;13.01;71.38
16595;BME280;8410;52.532;13.336;2023-05-24T01:24:57;101381.41;;;12.94;71.56
16595;BME280;8410;52.532;13.336;2023-05-24T01:27:29;101383.72;;;12.74;72.28
16595;BME280;8410;52.532;13.336;2023-05-24T01:29:58;101380.97;;;12.64;72.84
16595;BME280;8410;52.532;13.336;2023-05-24T01:32:26;101390.56;;;13.36;70.89
16595;BME280;8410;52.532;13.336;2023-05-24T01:34:54;101394.88;;;13.36;70.83
16595;BME280;8410;52.532;13.336;2023-05-24T01:37:22;101386.59;;;12.94;72.55
16595;BME280;8410;52.532;13.336;2023-05-24T01:39:50;101379.91;;;13.88;68.38
16595;BME280;8410;52.532;13.336;2023-05-24T01:42:23;101392.97;;;13.24;70.10
16595;BME280;8410;52.532;13.336;2023-05-24T01:45:01;101392.50;;;13.53;70.21
16595;BME280;8410;52.532;13.336;2023-05-24T01:47:36;101396.22;;;13.79;70.50
16595;BME280;8410;52.532;13.336;2023-05-24T01:50:14;101395.34;;;13.06;72.36
16595;BME280;8410;52.532;13.336;2023-05-24T01:52:44;101388.97;;;13.48;70.69
16595;BME280;8410;52.532;13.336;2023-05-24T01:55:16;101390.50;;;13.30;71.30
16595;BME280;8410;52.532;13.336;2023-05-24T01:57:45;101390.38;;;13.21;71.21
16595;BME280;8410;52.532;13.336;2023-05-24T02:00:18;101393.56;;;13.75;70.71
16595;BME280;8410;52.532;13.336;2023-05-24T02:02:46;101392.91;;;13.18;72.06
16595;BME280;8410;52.532;13.336;2023-05-24T02:05:14;101394.03;;;13.38;70.99
16595;BME280;8410;52.532;13.336;2023-05-24T02:07:41;101397.97;;;13.83;69.90
16595;BME280;8410;52.532;13.336;2023-05-24T02:10:09;101392.31;;;13.37;71.27
16595;BME280;8410;52.532;13.336;2023-05-24T02:12:37;101400.25;;;13.53;70.98
16595;BME280;8410;52.532;13.336;2023-05-24T02:15:05;101395.34;;;13.06;72.19
16595;BME280;8410;52.532;13.336;2023-05-24T02:17:34;101402.22;;;13.77;70.45
16595;BME280;8410;52.532;13.336;2023-05-24T02:20:02;101399.63;;;13.03;72.64
16595;BME280;8410;52.532;13.336;2023-05-24T02:22:30;101399.34;;;13.51;75.22
16595;BME280;8410;52.532;13.336;2023-05-24T02:24:57;101393.94;;;14.19;73.59
16595;BME280;8410;52.532;13.336;2023-05-24T02:27:24;101390.28;;;13.94;73.85
16595;BME280;8410;52.532;13.336;2023-05-24T02:29:52;101394.47;;;13.78;74.41
16595;BME280;8410;52.532;13.336;2023-05-24T02:32:19;101382.72;;;14.17;74.67
16595;BME280;8410;52.532;13.336;2023-05-24T02:34:48;101391.13;;;13.90;74.27
16595;BME280;8410;52.532;13.336;2023-05-24T02:37:16;101385.13;;;13.97;73.83
16595;BME280;8410;52.532;13.336;2023-05-24T02:39:43;101378.41;;;14.19;72.19
16595;BME280;8410;52.532;13.336;2023-05-24T02:42:10;101382.75;;;14.20;71.68
16595;BME280;8410;52.532;13.336;2023-05-24T02:44:38;101385.00;;;13.82;73.60
16595;BME280;8410;52.532;13.336;2023-05-24T02:47:07;101383.66;;;14.27;71.83
16595;BME280;8410;52.532;13.336;2023-05-24T02:49:35;101389.28;;;13.78;72.63
16595;BME280;8410;52.532;13.336;2023-05-24T02:52:04;101386.53;;;13.63;73.12
16595;BME280;8410;52.532;13.336;2023-05-24T02:54:32;101394.28;;;13.60;74.31
16595;BME280;8410;52.532;13.336;2023-05-24T02:56:59;101396.06;;;13.67;73.27
16595;BME280;8410;52.532;13.336;2023-05-24T02:59:26;101386.56;;;13.64;73.80
16595;BME280;8410;52.532;13.336;2023-05-24T03:01:54;101390.69;;;13.45;73.79
16595;BME280;8410;52.532;13.336;2023-05-24T03:04:22;101392.28;;;13.34;74.31
16595;BME280;8410;52.532;13.336;2023-05-24T03:06:49;101391.97;;;13.87;73.77
16595;BME280;8410;52.532;13.336;2023-05-24T03:09:20;101394.03;;;13.38;74.14
16595;BME280;8410;52.532;13.336;2023-05-24T03:11:47;101392.09;;;13.22;76.09
16595;BME280;8410;52.532;13.336;2023-05-24T03:14:15;101390.25;;;13.12;74.92
16595;BME280;8410;52.532;13.336;2023-05-24T03:16:42;101396.03;;;13.61;74.38
16595;BME280;8410;52.532;13.336;2023-05-24T03:19:10;101402.25;;;13.80;73.32
16595;BME280;8410;52.532;13.336;2023-05-24T03:21:38;101393.09;;;13.33;73.84
16595;BME280;8410;52.532;13.336;2023-05-24T03:24:05;101388.41;;;13.75;73.70
16595;BME280;8410;52.532;13.336;2023-05-24T03:26:36;101401.94;;;13.52;73.85
16595;BME280;8410;52.532;13.336;2023-05-24T03:29:03;101397.81;;;13.71;73.04
16595;BME280;8410;52.532;13.336;2023-05-24T03:31:30;101403.16;;;13.86;73.13
16595;BME280;8410;52.532;13.336;2023-05-24T03:33:58;101405.66;;;13.04;72.29
16595;BME280;8410;52.532;13.336;2023-05-24T03:36:25;101406.91;;;13.32;72.79
16595;BME280;8410;52.532;13.336;2023-05-24T03:38:54;101400.78;;;12.63;73.85
16595;BME280;8410;52.532;13.336;2023-05-24T03:41:23;101406.41;;;12.95;72.88
16595;BME280;8410;52.532;13.336;2023-05-24T03:43:52;101408.41;;;12.55;74.41
16595;BME280;8410;52.532;13.336;2023-05-24T03:46:20;101411.31;;;12.75;73.78
16595;BME280;8410;52.532;13.336;2023-05-24T03:48:47;101414.31;;;12.47;73.53
16595;BME280;8410;52.532;13.336;2023-05-24T03:51:15;101410.28;;;12.66;74.19
16595;BME280;8410;52.532;13.336;2023-05-24T03:53:43;101416.91;;;12.47;73.47
16595;BME280;8410;52.532;13.336;2023-05-24T03:56:11;101423.53;;;12.31;74.53
16595;BME280;8410;52.532;13.336;2023-05-24T03:58:38;101408.84;;;12.85;74.03
16595;BME280;8410;52.532;13.336;2023-05-24T04:01:07;101413.22;;;12.90;72.71
16595;BME280;8410;52.532;13.336;2023-05-24T04:03:41;101404.28;;;12.65;73.42
16595;BME280;8410;52.532;13.336;2023-05-24T04:06:11;101410.75;;;12.96;72.48
16595;BME280;8410;52.532;13.336;2023-05-24T04:08:42;101409.94;;;13.02;71.57
16595;BME280;8410;52.532;13.336;2023-05-24T04:11:10;101416.19;;;12.57;72.77
16595;BME280;8410;52.532;13.336;2023-05-24T04:13:37;101420.94;;;12.87;72.56
16595;BME280;8410;52.532;13.336;2023-05-24T04:16:05;101419.03;;;12.74;71.33
16595;BME280;8410;52.532;13.336;2023-05-24T04:18:36;101416.84;;;13.03;71.25
16595;BME280;8410;52.532;13.336;2023-05-24T04:21:03;101425.63;;;13.17;70.62
16595;BME280;8410;52.532;13.336;2023-05-24T04:23:31;101423.75;;;13.04;71.80
16595;BME280;8410;52.532;13.336;2023-05-24T04:25:58;101424.56;;;13.01;71.63
16595;BME280;8410;52.532;13.336;2023-05-24T04:28:26;101426.94;;;12.83;72.81
16595;BME280;8410;52.532;13.336;2023-05-24T04:30:53;101429.66;;;12.95;72.25
16595;BME280;8410;52.532;13.336;2023-05-24T04:33:23;101426.56;;;13.96;68.30
16595;BME280;8410;52.532;13.336;2023-05-24T04:35:51;101426.16;;;14.49;67.33
16595;BME280;8410;52.532;13.336;2023-05-24T04:38:19;101430.06;;;14.02;67.80
16595;BME280;8410;52.532;13.336;2023-05-24T04:40:47;101427.53;;;14.07;67.59
16595;BME280;8410;52.532;13.336;2023-05-24T04:43:14;101441.22;;;13.20;69.54
16595;BME280;8410;52.532;13.336;2023-05-24T04:45:42;101438.13;;;12.85;71.50
16595;BME280;8410;52.532;13.336;2023-05-24T04:48:09;101440.84;;;13.58;69.99
16595;BME280;8410;52.532;13.336;2023-05-24T04:50:37;101447.34;;;13.27;70.68
16595;BME280;8410;52.532;13.336;2023-05-24T04:53:06;101445.84;;;13.44;70.50
16595;BME280;8410;52.532;13.336;2023-05-24T04:55:34;101456.13;;;13.41;70.31
16595;BME280;8410;52.532;13.336;2023-05-24T04:58:01;101455.03;;;13.25;70.08
16595;BME280;8410;52.532;13.336;2023-05-24T05:00:29;101456.19;;;13.44;70.07
16595;BME280;8410;52.532;13.336;2023-05-24T05:02:58;101461.84;;;12.56;71.88
16595;BME280;8410;52.532;13.336;2023-05-24T05:05:25;101462.16;;;13.40;70.47
16595;BME280;8410;52.532;13.336;2023-05-24T05:07:53;101465.03;;;12.98;70.76
16595;BME280;8410;52.532;13.336;2023-05-24T05:10:22;101463.19;;;12.91;70.42
16595;BME280;8410;52.532;13.336;2023-05-24T05:12:49;101467.38;;;12.81;70.68
16595;BME280;8410;52.532;13.336;2023-05-24T05:15:17;101465.09;;;13.04;72.06
16595;BME280;8410;52.532;13.336;2023-05-24T05:17:44;101482.47;;;13.14;70.65
16595;BME280;8410;52.532;13.336;2023-05-24T05:20:12;101481.38;;;12.98;70.96
16595;BME280;8410;52.532;13.336;2023-05-24T05:22:44;101486.94;;;12.65;72.84
16595;BME280;8410;52.532;13.336;2023-05-24T05:25:12;101485.84;;;12.52;72.01
16595;BME280;8410;52.532;13.336;2023-05-24T05:27:40;101486.41;;;12.86;71.01
16595;BME280;8410;52.532;13.336;2023-05-24T05:30:09;101486.47;;;12.92;71.09
16595;BME280;8410;52.532;13.336;2023-05-24T05:32:36;101483.00;;;12.90;70.47
16595;BME280;8410;52.532;13.336;2023-05-24T05:35:05;101483.41;;;13.19;70.08
16595;BME280;8410;52.532;13.336;2023-05-24T05:37:32;101499.66;;;12.54;70.88
16595;BME280;8410;52.532;13.336;2023-05-24T05:40:00;101488.63;;;12.63;71.54
16595;BME280;8410;52.532;13.336;2023-05-24T05:42:29;101503.97;;;13.12;70.35
16595;BME280;8410;52.532;13.336;2023-05-24T05:44:57;101491.75;;;13.62;69.21
16595;BME280;8410;52.532;13.336;2023-05-24T05:47:25;101505.34;;;13.46;69.65
16595;BME280;8410;52.532;13.336;2023-05-24T05:49:52;101500.97;;;13.40;69.37
16595;BME280;8410;52.532;13.336;2023-05-24T05:52:20;101502.03;;;12.95;70.98
16595;BME280;8410;52.532;13.336;2023-05-24T05:54:48;101508.84;;;12.90;71.22
16595;BME280;8410;52.532;13.336;2023-05-24T05:57:15;101507.53;;;13.20;70.94
16595;BME280;8410;52.532;13.336;2023-05-24T05:59:44;101506.13;;;13.40;71.09
16595;BME280;8410;52.532;13.336;2023-05-24T06:02:13;101509.19;;;13.79;68.86
16595;BME280;8410;52.532;13.336;2023-05-24T06:04:41;101514.78;;;13.42;69.89
16595;BME280;8410;52.532;13.336;2023-05-24T06:07:08;101515.59;;;13.37;69.11
16595;BME280;8410;52.532;13.336;2023-05-24T06:09:36;101513.78;;;13.33;70.98
16595;BME280;8410;52.532;13.336;2023-05-24T06:12:04;101517.75;;;13.11;71.54
16595;BME280;8410;52.532;13.336;2023-05-24T06:14:31;101529.03;;;13.16;71.50
16595;BME280;8410;52.532;13.336;2023-05-24T06:16:59;101514.75;;;13.39;70.86
16595;BME280;8410;52.532;13.336;2023-05-24T06:19:28;101527.41;;;13.22;69.83
16595;BME280;8410;52.532;13.336;2023-05-24T06:21:56;101527.13;;;13.63;71.02
16595;BME280;8410;52.532;13.336;2023-05-24T06:24:23;101522.41;;;14.02;69.77
16595;BME280;8410;52.532;13.336;2023-05-24T06:26:51;101524.47;;;13.60;69.49
16595;BME280;8410;52.532;13.336;2023-05-24T06:29:19;101527.41;;;13.89;70.57
16595;BME280;8410;52.532;13.336;2023-05-24T06:31:47;101526.31;;;13.66;70.41
16595;BME280;8410;52.532;13.336;2023-05-24T06:34:17;101532.19;;;13.53;71.55
16595;BME280;8410;52.532;13.336;2023-05-24T06:36:48;101531.75;;;13.90;69.84
16595;BME280;8410;52.532;13.336;2023-05-24T06:39:18;101535.31;;;13.29;71.35
16595;BME280;8410;52.532;13.336;2023-05-24T06:41:46;101543.09;;;12.77;73.28
16595;BME280;8410;52.532;13.336;2023-05-24T06:44:16;101540.28;;;13.19;71.20
16595;BME280;8410;52.532;13.336;2023-05-24T06:46:44;101545.06;;;12.93;73.64
16595;BME280;8410;52.532;13.336;2023-05-24T06:49:11;101543.50;;;13.62;70.97
16595;BME280;8410;52.532;13.336;2023-05-24T06:51:39;101540.50;;;14.02;69.08
16595;BME280;8410;52.532;13.336;2023-05-24T06:54:08;101559.59;;;13.40;71.05
16595;BME280;8410;52.532;13.336;2023-05-24T06:56:35;101561.13;;;13.27;72.25
16595;BME280;8410;52.532;13.336;2023-05-24T06:59:03;101570.03;;;12.91;72.84
16595;BME280;8410;52.532;13.336;2023-05-24T07:01:31;101562.78;;;13.25;72.17
16595;BME280;8410;52.532;13.336;2023-05-24T07:03:59;101558.16;;;13.62;71.71
16595;BME280;8410;52.532;13.336;2023-05-24T07:06:26;101556.69;;;13.82;70.77
16595;BME280;8410;52.532;13.336;2023-05-24T07:08:54;101563.59;;;13.21;73.04
16595;BME280;8410;52.532;13.336;2023-05-24T07:11:22;101559.56;;;13.38;71.75
16595;BME280;8410;52.532;13.336;2023-05-24T07:13:50;101566.56;;;12.91;73.49
16595;BME280;8410;52.532;13.336;2023-05-24T07:16:18;101567.03;;;13.21;73.04
16595;BME280;8410;52.532;13.336;2023-05-24T07:18:45;101574.31;;;13.45;72.30
16595;BME280;8410;52.532;13.336;2023-05-24T07:21:13;101570.66;;;13.97;72.35
16595;BME280;8410;52.532;13.336;2023-05-24T07:23:40;101567.44;;;14.19;70.31
16595;BME280;8410;52.532;13.336;2023-05-24T07:26:07;101569.91;;;14.94;68.41
16595;BME280;8410;52.532;13.336;2023-05-24T07:28:36;101575.88;;;14.00;70.07
16595;BME280;8410;52.532;13.336;2023-05-24T07:31:07;101578.41;;;13.97;70.60
16595;BME280;8410;52.532;13.336;2023-05-24T07:33:35;101576.72;;;14.81;69.09
16595;BME280;8410;52.532;13.336;2023-05-24T07:36:04;101579.31;;;13.99;70.87
16595;BME280;8410;52.532;13.336;2023-05-24T07:38:32;101588.09;;;14.11;70.51
16595;BME280;8410;52.532;13.336;2023-05-24T07:41:02;101582.06;;;15.01;68.28
16595;BME280;8410;52.532;13.336;2023-05-24T07:43:29;101592.81;;;14.51;68.65
16595;BME280;8410;52.532;13.336;2023-05-24T07:45:58;101586.75;;;15.60;67.05
16595;BME280;8410;52.532;13.336;2023-05-24T07:48:26;101589.50;;;15.82;65.90
16595;BME280;8410;52.532;13.336;2023-05-24T07:50:53;101594.84;;;14.80;67.85
16595;BME280;8410;52.532;13.336;2023-05-24T07:53:22;101595.75;;;14.82;67.52
16595;BME280;8410;52.532;13.336;2023-05-24T07:55:49;101600.38;;;15.22;66.87
16595;BME280;8410;52.532;13.336;2023-05-24T07:58:17;101602.44;;;14.61;68.16
16595;BME280;8410;52.532;13.336;2023-05-24T08:00:44;101605.34;;;14.95;68.65
16595;BME280;8410;52.532;13.336;2023-05-24T08:03:13;101601.25;;;15.25;67.29
16595;BME280;8410;52.532;13.336;2023-05-24T08:05:42;101588.84;;;16.57;74.81
16595;BME280;8410;52.532;13.336;2023-05-24T08:08:10;101585.34;;;17.59;75.20
16595;BME280;8410;52.532;13.336;2023-05-24T08:10:38;101580.94;;;17.79;69.84
16595;BME280;8410;52.532;13.336;2023-05-24T08:13:05;101589.63;;;17.72;65.70
16595;BME280;8410;52.532;13.336;2023-05-24T08:15:33;101586.03;;;18.07;70.91
16595;BME280;8410;52.532;13.336;2023-05-24T08:18:00;101594.69;;;18.15;69.32
16595;BME280;8410;52.532;13.336;2023-05-24T08:20:30;101593.91;;;17.92;66.10
16595;BME280;8410;52.532;13.336;2023-05-24T08:23:01;101595.69;;;17.67;66.80
16595;BME280;8410;52.532;13.336;2023-05-24T08:25:29;101593.94;;;17.73;63.71
16595;BME280;8410;52.532;13.336;2023-05-24T08:27:56;101600.00;;;17.84;67.59
16595;BME280;8410;52.532;13.336;2023-05-24T08:30:24;101598.19;;;18.08;64.86
16595;BME280;8410;52.532;13.336;2023-05-24T08:32:51;101600.03;;;17.75;62.50
16595;BME280;8410;52.532;13.336;2023-05-24T08:35:19;101598.25;;;17.90;68.29
16595;BME280;8410;52.532;13.336;2023-05-24T08:37:49;101605.03;;;18.24;63.58
16595;BME280;8410;52.532;13.336;2023-05-24T08:40:17;101606.75;;;18.32;62.17
16595;BME280;8410;52.532;13.336;2023-05-24T08:42:44;101609.38;;;18.22;60.24
16595;BME280;8410;52.532;13.336;2023-05-24T08:45:13;101617.50;;;17.10;63.58
16595;BME280;8410;52.532;13.336;2023-05-24T08:47:41;101621.38;;;15.61;67.03
16595;BME280;8410;52.532;13.336;2023-05-24T08:50:09;101617.47;;;16.66;63.92
16595;BME280;8410;52.532;13.336;2023-05-24T08:52:38;101617.50;;;16.84;63.87
16595;BME280;8410;52.532;13.336;2023-05-24T08:55:09;101620.97;;;16.80;63.99
16595;BME280;8410;52.532;13.336;2023-05-24T08:57:38;101620.78;;;16.06;65.60
16595;BME280;8410;52.532;13.336;2023-05-24T09:00:08;101621.81;;;16.94;62.87
16595;BME280;8410;52.532;13.336;2023-05-24T09:02:38;101622.66;;;16.55;63.98
16595;BME280;8410;52.532;13.336;2023-05-24T09:05:08;101630.38;;;16.38;64.74
16595;BME280;8410;52.532;13.336;2023-05-24T09:07:37;101634.88;;;16.97;63.33
16595;BME280;8410;52.532;13.336;2023-05-24T09:10:06;101641.56;;;16.13;65.31
16595;BME280;8410;52.532;13.336;2023-05-24T09:12:36;101638.25;;;16.72;64.62
16595;BME280;8410;52.532;13.336;2023-05-24T09:15:06;101633.03;;;16.61;64.26
16595;BME280;8410;52.532;13.336;2023-05-24T09:17:35;101639.16;;;16.97;62.27
16595;BME280;8410;52.532;13.336;2023-05-24T09:20:04;101639.75;;;15.93;66.06
16595;BME280;8410;52.532;13.336;2023-05-24T09:22:36;101644.03;;;15.83;66.50
16595;BME280;8410;52.532;13.336;2023-05-24T09:25:08;101634.00;;;17.00;64.30
16595;BME280;8410;52.532;13.336;2023-05-24T09:27:37;101637.47;;;17.11;64.10
16595;BME280;8410;52.532;13.336;2023-05-24T09:30:08;101645.06;;;16.15;66.24
16595;BME280;8410;52.532;13.336;2023-05-24T09:32:36;101633.13;;;16.84;63.83
16595;BME280;8410;52.532;13.336;2023-05-24T09:35:07;101638.88;;;15.93;65.50
16595;BME280;8410;52.532;13.336;2023-05-24T09:37:36;101635.38;;;15.84;66.00
16595;BME280;8410;52.532;13.336;2023-05-24T09:40:06;101643.84;;;15.57;68.57
16595;BME280;8410;52.532;13.336;2023-05-24T09:42:45;101646.44;;;15.60;67.49
16595;BME280;8410;52.532;13.336;2023-05-24T09:45:14;101642.16;;;15.65;67.57
16595;BME280;8410;52.532;13.336;2023-05-24T09:47:42;101634.66;;;16.18;66.79
16595;BME280;8410;52.532;13.336;2023-05-24T09:50:12;101638.69;;;15.59;67.72
16595;BME280;8410;52.532;13.336;2023-05-24T09:52:40;101637.28;;;16.30;66.15
16595;BME280;8410;52.532;13.336;2023-05-24T09:55:10;101655.00;;;15.44;68.35
16595;BME280;8410;52.532;13.336;2023-05-24T09:57:38;101659.13;;;15.17;69.24
16595;BME280;8410;52.532;13.336;2023-05-24T10:00:08;101658.38;;;15.31;68.58
16595;BME280;8410;52.532;13.336;2023-05-24T10:02:43;101645.00;;;16.12;68.55
16595;BME280;8410;52.532;13.336;2023-05-24T10:05:19;101663.66;;;15.43;69.65
16595;BME280;8410;52.532;13.336;2023-05-24T10:07:47;101653.72;;;16.18;67.84
16595;BME280;8410;52.532;13.336;2023-05-24T10:10:15;101655.41;;;16.08;67.23
16595;BME280;8410;52.532;13.336;2023-05-24T10:12:43;101655.44;;;16.15;64.41
16595;BME280;8410;52.532;13.336;2023-05-24T10:15:14;101652.06;;;16.43;65.96
16595;BME280;8410;52.532;13.336;2023-05-24T10:17:41;101653.94;;;17.30;64.37
16595;BME280;8410;52.532;13.336;2023-05-24T10:20:10;101643.47;;;17.58;64.09
16595;BME280;8410;52.532;13.336;2023-05-24T10:22:43;101640.69;;;18.15;61.39
16595;BME280;8410;52.532;13.336;2023-05-24T10:25:16;101646.72;;;18.32;59.59
16595;BME280;8410;52.532;13.336;2023-05-24T10:27:46;101648.25;;;18.68;58.42
16595;BME280;8410;52.532;13.336;2023-05-24T10:30:23;101639.22;;;19.12;58.01
16595;BME280;8410;52.532;13.336;2023-05-24T10:32:54;101641.25;;;18.77;57.46
16595;BME280;8410;52.532;13.336;2023-05-24T10:35:23;101633.91;;;19.22;57.85
16595;BME280;8410;52.532;13.336;2023-05-24T10:37:52;101631.91;;;19.48;56.88
16595;BME280;8410;52.532;13.336;2023-05-24T10:40:22;101645.06;;;18.06;59.95
16595;BME280;8410;52.532;13.336;2023-05-24T10:42:51;101646.69;;;18.37;60.79
16595;BME280;8410;52.532;13.336;2023-05-24T10:45:30;101659.13;;;17.21;63.79
16595;BME280;8410;52.532;13.336;2023-05-24T10:48:07;101644.78;;;18.62;58.87
16595;BME280;8410;52.532;13.336;2023-05-24T10:50:35;101656.47;;;17.64;58.40
16595;BME280;8410;52.532;13.336;2023-05-24T10:53:13;101653.63;;;18.39;57.46
16595;BME280;8410;52.532;13.336;2023-05-24T10:55:50;101656.50;;;17.36;57.55
16595;BME280;8410;52.532;13.336;2023-05-24T10:58:18;101653.00;;;17.65;58.95
16595;BME280;8410;52.532;13.336;2023-05-24T11:00:50;101648.56;;;18.01;56.95
16595;BME280;8410;52.532;13.336;2023-05-24T11:03:18;101655.59;;;17.65;58.02
16595;BME280;8410;52.532;13.336;2023-05-24T11:05:52;101664.22;;;16.47;60.99
16595;BME280;8410;52.532;13.336;2023-05-24T11:08:24;101667.66;;;16.40;60.55
16595;BME280;8410;52.532;13.336;2023-05-24T11:11:03;101661.56;;;16.34;61.60
16595;BME280;8410;52.532;13.336;2023-05-24T11:13:54;101664.09;;;16.20;62.11
16595;BME280;8410;52.532;13.336;2023-05-24T11:16:35;101655.59;;;16.70;61.01
16595;BME280;8410;52.532;13.336;2023-05-24T11:19:11;101655.59;;;16.61;61.75
16595;BME280;8410;52.532;13.336;2023-05-24T11:21:42;101664.22;;;16.60;61.22
16595;BME280;8410;52.532;13.336;2023-05-24T11:24:10;101662.59;;;17.29;59.05
16595;BME280;8410;52.532;13.336;2023-05-24T11:26:38;101658.25;;;17.25;58.72
16595;BME280;8410;52.532;13.336;2023-05-24T11:29:06;101654.75;;;17.58;57.90
16595;BME280;8410;52.532;13.336;2023-05-24T11:31:35;101649.53;;;17.64;57.69
16595;BME280;8410;52.532;13.336;2023-05-24T11:34:09;101657.34;;;17.66;57.57
16595;BME280;8410;52.532;13.336;2023-05-24T11:36:37;101653.91;;;17.52;57.82
16595;BME280;8410;52.532;13.336;2023-05-24T11:39:06;101648.59;;;17.98;55.98
16595;BME280;8410;52.532;13.336;2023-05-24T11:41:36;101653.84;;;17.89;56.48
16595;BME280;8410;52.532;13.336;2023-05-24T11:44:06;101654.78;;;17.54;56.89
16595;BME280;8410;52.532;13.336;2023-05-24T11:46:37;101641.22;;;18.83;54.74
16595;BME280;8410;52.532;13.336;2023-05-24T11:49:05;101649.38;;;18.17;55.16
16595;BME280;8410;52.532;13.336;2023-05-24T11:51:33;101647.63;;;18.19;54.57
16595;BME280;8410;52.532;13.336;2023-05-24T11:54:02;101646.69;;;18.37;55.32
16595;BME280;8410;52.532;13.336;2023-05-24T11:56:31;101648.47;;;18.22;54.75
16595;BME280;8410;52.532;13.336;2023-05-24T11:59:06;101660.00;;;17.38;57.93
16595;BME280;8410;52.532;13.336;2023-05-24T12:01:36;101667.63;;;16.34;61.74
16595;BME280;8410;52.532;13.336;2023-05-24T12:04:05;101661.63;;;16.61;61.21
16595;BME280;8410;52.532;13.336;2023-05-24T12:06:37;101669.47;;;16.69;61.00
16595;BME280;8410;52.532;13.336;2023-05-24T12:09:05;101669.38;;;16.40;61.61
16595;BME280;8410;52.532;13.336;2023-05-24T12:11:39;101675.34;;;16.16;62.10
16595;BME280;8410;52.532;13.336;2023-05-24T12:14:10;101666.94;;;16.90;60.60
16595;BME280;8410;52.532;13.336;2023-05-24T12:16:40;101672.13;;;17.39;59.80
16595;BME280;8410;52.532;13.336;2023-05-24T12:19:15;101671.28;;;17.37;59.81
16595;BME280;8410;52.532;13.336;2023-05-24T12:21:58;101667.75;;;17.75;59.41
16595;BME280;8410;52.532;13.336;2023-05-24T12:24:26;101664.28;;;17.85;58.22
16595;BME280;8410;52.532;13.336;2023-05-24T12:26:57;101662.50;;;17.97;57.41
16595;BME280;8410;52.532;13.336;2023-05-24T12:29:26;101660.72;;;18.05;56.60
16595;BME280;8410;52.532;13.336;2023-05-24T12:31:55;101661.44;;;18.36;56.06
16595;BME280;8410;52.532;13.336;2023-05-24T12:34:23;101658.81;;;18.41;56.47
16595;BME280;8410;52.532;13.336;2023-05-24T12:36:54;101661.19;;;18.84;55.30
16595;BME280;8410;52.532;13.336;2023-05-24T12:39:23;101655.50;;;18.08;54.95
16595;BME280;8410;52.532;13.336;2023-05-24T12:41:57;101660.63;;;18.29;54.71
16595;BME280;8410;52.532;13.336;2023-05-24T12:44:27;101664.19;;;18.10;55.79
16595;BME280;8410;52.532;13.336;2023-05-24T12:46:57;101663.97;;;18.56;55.84
16595;BME280;8410;52.532;13.336;2023-05-24T12:49:25;101662.06;;;18.86;53.96
16595;BME280;8410;52.532;13.336;2023-05-24T12:51:53;101661.41;;;18.50;55.54
16595;BME280;8410;52.532;13.336;2023-05-24T12:54:23;101657.59;;;19.00;54.08
16595;BME280;8410;52.532;13.336;2023-05-24T12:56:51;101657.41;;;19.23;53.95
16595;BME280;8410;52.532;13.336;2023-05-24T12:59:22;101661.38;;;18.51;54.23
16595;BME280;8410;52.532;13.336;2023-05-24T13:01:50;101669.78;;;19.01;53.97